Vancouver International Airport

CYVR · Columbia Británica, Canadá

METAR pasados CYVR · Vancouver International Airport

A continuación puedes ver los METAR de los últimos días. Selecciona un año para ver los METAR más antiguos, desde el año 2007 en adelante.

1 de marzo de 2024

Hora Código Tiempo Temp. Visibilidad Cielo nuboso Viento METAR/SPECI
03:00
M
5 °C 8 mi 3.000 ft 160° 160° 14 - 20 kt METAR CYVR 011100Z 16014G20KT 8SM -SHRA FEW018 FEW023 BKN030 OVC050 05/02 A2943 RMK SC1SC1SC5SC1 CVCTV CLD EMBD SLP967
02:00
V
5 °C 10 mi 7.500 ft 140° 140° 15 - 22 kt METAR CYVR 011000Z 14015G22KT 10SM SCT023 BKN075 05/02 A2942 RMK SC3AC3 SLP965
01:00
M
5 °C 10 mi 3.000 ft 120° 120° 17 kt METAR CYVR 010900Z 12017KT 10SM FEW020 SCT025 BKN030 05/02 A2941 RMK SC1SC2SC4 SLP963
00:00
M
4 °C 8 mi 3.000 ft 120° 120° 18 kt METAR CYVR 010800Z 12018KT 8SM FEW018 SCT025 BKN030 04/03 A2941 RMK SC1SC2SC4 SLP961

29 de febrero de 2024

Hora Código Tiempo Temp. Visibilidad Cielo nuboso Viento METAR/SPECI
23:42
M
4 °C 6 mi 3.000 ft 110° 110° 14 - 22 kt METAR CYVR 010742Z 11014G22KT 6SM -SHRA BR FEW016 SCT023 OVC030 04/03 A2941 RMK SC1SC3SC4 CVTV CLD EMBD SLP961
23:00
V
4 °C 8 mi 3.400 ft 120° 120° 14 - 20 kt METAR CYVR 010700Z 12014G20KT 8SM FEW019 SCT025 BKN034 04/02 A2941 RMK SC1SC2SC4 SLP963
22:42
V
4 °C 8 mi 3.500 ft 120° 120° 16 - 22 kt METAR CYVR 010642Z 12016G22KT 8SM FEW019 SCT027 BKN035 04/02 A2942 RMK SC2SC1SC4 SLP964
22:15
M
4 °C 4 mi 3.800 ft 120° 120° 18 kt METAR CYVR 010615Z 12018KT 4SM -SHRA BR FEW018 SCT025 BKN038 OVC080 04/02 A2942 RMK SC2SC1SC4AC1 CVCTV CLD EMBD SLP966
22:00
V
5 °C 8 mi 4.300 ft 120° 120° 15 - 22 kt METAR CYVR 010600Z 12015G22KT 8SM -SHRA FEW018 SCT028 BKN043 BKN080 05/02 A2942 RMK SC1SC1SC4AC2 SLP964
21:42
V
4 °C 6 mi 4.600 ft 130° 130° 15 - 22 kt METAR CYVR 010542Z 13015G22KT 6SM -SHRA BR FEW023 BKN046 OVC080 04/02 A2942 RMK SC2SC4AC2 CVCTV CLD EMBD SLP965
21:00
V
5 °C 10 mi 4.400 ft 130° 130° 13 - 19 kt METAR CYVR 010500Z 13013G19KT 10SM FEW021 BKN044 BKN170 BKN190 05/03 A2942 RMK SC1SC5AC1AC1 SC TR AC TR SLP965
20:00
V
4 °C 10 mi 23.000 ft 100° 100° 7 kt METAR CYVR 010400Z 10007KT 10SM FEW022 SCT030 SCT040 BKN230 04/03 A2941 RMK SC1SC1SC2CI1 SLP963
19:00
V
4 °C 8 mi 3.900 ft 360° 360° 0 kt METAR CYVR 010300Z 00000KT 8SM FEW022 SCT028 BKN039 04/02 A2942 RMK SC2CU2SC2 SLP965
18:42
M
3 °C 8 mi 2.800 ft 280° 280° 3 kt METAR CYVR 010242Z 28003KT 230V290 8SM FEW018 BKN028 BKN040 BKN066 03/02 A2942 RMK SC2CU3SC1AC1 AC TR SLP965
18:00
M
3 °C 7 mi 1.900 ft Var Var 21 - 26 kt METAR CYVR 010200Z VRB21G26KT 7SM -SHRA FEW013 BKN019 OVC026TCU 03/03 A2941 RMK SC2CU4TCU2 SLP963
17:00
M
4 °C 4 mi 1.800 ft 120° 120° 7 - 17 kt METAR CYVR 010100Z 12007G17KT 4SM -SHRA BR BKN018 OVC025TCU 04/03 A2941 RMK CU5TCU3 SLP963
16:50
M
5 °C 4 mi 2.300 ft 110° 110° 9 - 15 kt METAR CYVR 010050Z 11009G15KT 4SM SHRA BR SCT017 OVC023TCU 05/03 A2941 RMK CU4TCU4 SLP963
16:00
M
5 °C 8 mi 2.800 ft 140° 140° 9 kt METAR CYVR 010000Z 14009KT 8SM -SHRA SCT018 OVC028 05/03 A2943 RMK CU3CU5 TCU ASOCTD SLP967
15:00
V
5 °C 8 mi 3.200 ft 120° 120° 11 kt METAR CYVR 292300Z 12011KT 8SM -SHRA FEW016 BKN032 BKN067 05/03 A2943 RMK CU2CU4AC2 TCU ASOCTD SLP968
14:41
V
6 °C 20 mi 7.600 ft 140° 140° 15 kt METAR CYVR 292241Z 14015KT 20SM -SHRA FEW037 SCT060 BKN076 OVC150 06/02 A2943 RMK CU1CU2AC3AS2 TCU ASOCTD SLP967
14:01
V
6 °C 20 mi 11.000 ft 140° 140° 14 kt METAR CYVR 292201Z 14014KT 20SM FEW019 FEW025 BKN110 OVC140 06/03 A2943 RMK CU1SC1AC1AS6 SC TR TCU ASOCTD SLP968
13:00
V
7 °C 20 mi 19.000 ft 150° 150° 13 - 18 kt METAR CYVR 292100Z 15013G18KT 20SM FEW020 FEW150 BKN190 BKN220 07/03 A2943 RMK CU2AC1AS3CI2 AC TR TCU ASOCTD SLP969
12:00
V
8 °C 20 mi 22.000 ft 180° 180° 12 kt METAR CYVR 292000Z 18012KT 20SM SCT027 SCT150 BKN220 08/01 A2943 RMK CU3AC1CI3 AC TR TCU ASOCTD SLP967
11:00
V
7 °C 20 mi 21.000 ft 140° 140° 7 - 15 kt METAR CYVR 291900Z 14007G15KT 20SM SCT027 SCT150 BKN210 07/02 A2942 RMK CU4AC1CI2 AC TR TCU ASOCTD SLP966
10:00
V
7 °C 20 mi - 150° 150° 9 kt METAR CYVR 291800Z 15009KT 110V170 20SM FEW018 FEW025 SCT160 SCT230 07/02 A2941 RMK SC1CU2AC1CI1 SC TR AC TR TCU ASOCTD E SLP962
09:00
V
5 °C 20 mi - 110° 110° 5 kt METAR CYVR 291700Z 11005KT 20SM FEW030 SCT170 SCT210 05/03 A2941 RMK CU1AC2CI1 TCU TOPS E SLP960
08:00
V
3 °C 20 mi 19.000 ft 090° 090° 7 kt METAR CYVR 291600Z 09007KT 20SM FEW030 FEW140 SCT160 BKN190 BKN200 03/02 A2940 RMK CU1AC1AC2AC3CI1 AC TR CI TR SLP957
07:00
V
4 °C 20 mi 14.000 ft 090° 090° 5 kt METAR CYVR 291500Z 09005KT 20SM FEW030 BKN140 BKN170 04/02 A2938 RMK SC1AC5AC1 SLP953
06:00
V
3 °C 20 mi 13.000 ft 120° 120° 4 kt METAR CYVR 291400Z 12004KT 20SM FEW020 OVC130 03/02 A2937 RMK SC1AC8 SC TR SLP948
05:00
V
5 °C 15 mi 12.000 ft 190° 190° 7 kt METAR CYVR 291300Z 19007KT 15SM FEW021 OVC120 05/02 A2937 RMK SC1AC7 SLP948
04:00
V
5 °C 15 mi 7.600 ft 260° 260° 6 kt METAR CYVR 291200Z 26006KT 15SM FEW015 SCT050 OVC076 05/03 A2938 RMK SC2SC1AC5 SLP950
03:00
V
5 °C 15 mi 8.200 ft 210° 210° 7 kt METAR CYVR 291100Z 21007KT 15SM FEW016 OVC082 05/04 A2936 RMK SC1AC7 SLP945
02:00
M
5 °C 15 mi 2.600 ft 170° 170° 4 kt METAR CYVR 291000Z 17004KT 15SM BKN026 OVC074 05/04 A2933 RMK SC7AC1 PRESFR SLP936
01:00
V
5 °C 15 mi 6.300 ft 110° 110° 8 kt METAR CYVR 290900Z 11008KT 15SM FEW045 BKN063 OVC075 05/04 A2934 RMK SC2SC4AC2 SLP938
00:37
V
5 °C 15 mi 5.600 ft 110° 110° 6 kt METAR CYVR 290837Z 11006KT 15SM FEW045 BKN056 OVC078 05/05 A2935 RMK SC1SC6AC1 SLP941
00:00
V
5 °C 10 mi 4.600 ft 130° 130° 6 kt METAR CYVR 290800Z 13006KT 10SM OVC046 05/05 A2936 RMK SC8 SLP944

28 de febrero de 2024

Hora Código Tiempo Temp. Visibilidad Cielo nuboso Viento METAR/SPECI
23:00
V
6 °C 10 mi 3.800 ft 150° 150° 8 - 16 kt METAR CYVR 290700Z 15008G16KT 120V180 10SM -RA OVC038 06/04 A2934 RMK SC8 SLP939
22:00
V
6 °C 6 mi 3.400 ft 200° 200° 10 kt METAR CYVR 290600Z 20010KT 6SM -RA BR OVC034 06/04 A2936 RMK SC8 SLP944
21:00
V
6 °C 6 mi 4.500 ft 210° 210° 8 kt METAR CYVR 290500Z 21008KT 160V230 6SM -RA BR SCT026 OVC045 06/05 A2936 RMK SC3SC5 SLP945
20:00
V
7 °C 12 mi 6.600 ft 240° 240° 6 kt METAR CYVR 290400Z 24006KT 12SM -RA FEW029 SCT049 OVC066 07/06 A2935 RMK SC2SC1AC5 SLP942
19:29
V
7 °C 6 mi 3.100 ft 250° 250° 14 - 21 kt METAR CYVR 290329Z 25014G21KT 6SM -RA BR SCT018 OVC031 07/07 A2936 RMK SC3SC5 SLP946
19:00
M
8 °C 4 mi 1.500 ft 250° 250° 14 - 29 kt METAR CYVR 290300Z 25014G29KT 190V260 4SM RA BR BKN015 OVC031 08/07 A2936 RMK SC6SC2 SLP943
18:47
M
8 °C 8 mi 2.300 ft 180° 180° 19 - 25 kt METAR CYVR 290247Z 18019G25KT 8SM RA BKN023 OVC049 08/08 A2935 RMK SC7SC1 SLP940
18:00
M
9 °C 10 mi 2.800 ft 150° 150° 16 - 22 kt METAR CYVR 290200Z 15016G22KT 10SM -RA FEW010 BKN028 OVC034 09/08 A2933 RMK SC1SC6SC1 SLP935
17:44
V
9 °C 10 mi 4.800 ft 150° 150° 13 - 18 kt METAR CYVR 290144Z 15013G18KT 10SM -RA FEW010 SCT039 BKN048 09/08 A2933 RMK SC1SC3SC4 SLP936
17:14
V
9 °C 10 mi 10.000 ft 120° 120° 14 kt METAR CYVR 290114Z 12014KT 10SM FEW010 SCT040 OVC100 09/08 A2933 RMK SF1SC2AC5 PRESFR SLP936
17:00
V
9 °C 12 mi 10.000 ft 120° 120° 14 kt METAR CYVR 290100Z 12014KT 12SM -RA SCT041 BKN100 OVC120 09/08 A2935 RMK SC3AC4AC1 PRESFR SLP940
16:00
V
9 °C 12 mi 6.400 ft 130° 130° 13 - 19 kt METAR CYVR 290000Z 13013G19KT 12SM -RA SCT044 OVC064 09/08 A2938 RMK SC3SC5 SLP950
15:00
V
9 °C 15 mi 4.000 ft 140° 140° 17 - 23 kt METAR CYVR 282300Z CCA 14017G23KT 15SM -RA BKN040 OVC100 09/08 A2941 RMK SC6AC2 SLP962
14:00
V
8 °C 10 mi 10.000 ft 140° 140° 17 - 25 kt METAR CYVR 282200Z 14017G25KT 10SM -RA FEW040 OVC100 08/08 A2943 RMK SC2AC6 SLP968
13:00
V
8 °C 6 mi 4.000 ft 140° 140° 15 - 20 kt METAR CYVR 282100Z 14015G20KT 6SM RA BR SCT026 OVC040 08/08 A2948 RMK SC3NS5 SLP984
12:34
V
8 °C 6 mi 3.900 ft 150° 150° 16 - 23 kt METAR CYVR 282034Z 15016G23KT 6SM -RA BR SCT026 OVC039 08/08 A2949 RMK SC4NS4 SLP990
12:00
V
8 °C 6 mi 4.300 ft 150° 150° 13 - 19 kt METAR CYVR 282000Z 15013G19KT 6SM -RA BR BKN043 OVC053 08/08 A2951 RMK SC6SC2 SLP994
11:00
M
8 °C 6 mi 2.200 ft 140° 140° 11 - 17 kt METAR CYVR 281900Z 14011G17KT 6SM -RA BR BKN022 OVC029 08/08 A2952 RMK SC6SC2 SLP998
10:13
V
8 °C 6 mi 3.300 ft 140° 140° 13 - 19 kt METAR CYVR 281813Z 14013G19KT 6SM -RA BR BKN033 OVC049 08/08 A2953 RMK SC5SC3 SLP002
10:00
I
8 °C 2½ mi 4.200 ft 150° 150° 17 - 23 kt METAR CYVR 281800Z 15017G23KT 2 1/2SM -RA BR SCT037 OVC042 08/08 A2953 RMK SC3SC5 SLP002
09:00
I
8 °C 2½ mi 2.400 ft 140° 140° 15 kt METAR CYVR 281700Z 14015KT 2 1/2SM -RA BR FEW008 BKN024 OVC035 08/08 A2954 RMK ST1SC5SC2 SLP005
08:40
I
8 °C 2½ mi 2.600 ft 150° 150° 15 kt METAR CYVR 281640Z 15015KT 2 1/2SM -RA BR FEW008 BKN026 OVC038 08/07 A2955 RMK ST2SC4SC2 SLP008
08:00
V
7 °C 6 mi 4.600 ft 140° 140° 15 kt METAR CYVR 281600Z 14015KT 6SM -RA BR SCT027 OVC046 07/07 A2956 RMK SC3SC5 SLP012
07:00
V
7 °C 6 mi 5.300 ft 130° 130° 14 - 20 kt METAR CYVR 281500Z 13014G20KT 6SM -RA BR SCT041 OVC053 07/07 A2955 RMK SC3SC5 SLP010
06:53
V
7 °C 6 mi 5.300 ft 140° 140° 15 kt METAR CYVR 281453Z 14015KT 6SM -RA BR SCT041 OVC053 07/07 A2956 RMK SC3SC5 SLP013
06:00
M
7 °C 5 mi 1.800 ft 130° 130° 15 - 23 kt METAR CYVR 281400Z 13015G23KT 5SM -RA BR FEW007 BKN018 OVC042 07/07 A2959 RMK SC2SC5NS1 SLP021
05:34
M
6 °C 4 mi 1.800 ft 120° 120° 15 - 22 kt METAR CYVR 281334Z 12015G22KT 4SM -RA BR SCT007 BKN018 OVC035 06/06 A2960 RMK SC4SC3SC1 SLP025
05:00
I
6 °C 5 mi 700 ft 120° 120° 14 - 19 kt METAR CYVR 281300Z 12014G19KT 5SM -RA BR BKN007 OVC031 06/06 A2962 RMK SC5SC3 SLP031
04:00
I
4 °C 5 mi 500 ft 090° 090° 12 kt METAR CYVR 281200Z 09012KT 5SM -RA BR BKN005 OVC014 04/04 A2964 RMK SC7SC1 SLP041
03:00
I
4 °C 8 mi 700 ft 080° 080° 13 kt METAR CYVR 281100Z 08013KT 8SM -RA BKN007 OVC019 04/04 A2968 RMK SC5SC3 SLP054
02:00
I
3 °C 8 mi 700 ft 080° 080° 14 - 19 kt METAR CYVR 281000Z 08014G19KT 8SM -RA OVC007 03/03 A2972 RMK SC8 SLP065
01:28
I
3 °C 12 mi 900 ft 090° 090° 11 kt METAR CYVR 280928Z 09011KT 12SM -RA OVC009 03/03 A2973 RMK SC8 SLP071
01:00
M
3 °C 12 mi 1.000 ft 080° 080° 13 kt METAR CYVR 280900Z 08013KT 12SM -RA OVC010 03/03 A2974 RMK SC8 SLP073
00:00
M
2 °C 8 mi 1.100 ft 070° 070° 14 - 19 kt METAR CYVR 280800Z 07014G19KT 8SM -RA OVC011 02/02 A2976 RMK SC8 SLP079

27 de febrero de 2024

Hora Código Tiempo Temp. Visibilidad Cielo nuboso Viento METAR/SPECI
23:00
M
2 °C 6 mi 1.300 ft 080° 080° 14 kt METAR CYVR 280700Z 08014KT 6SM -RA BR OVC013 02/02 A2978 RMK SC8 SLP087
22:34
M
2 °C 6 mi 1.400 ft 070° 070° 12 kt METAR CYVR 280634Z 07012KT 6SM -RA BR OVC014 02/02 A2980 RMK SC8 SLP093
22:00
M
2 °C 4 mi 1.400 ft 070° 070° 14 kt METAR CYVR 280600Z 07014KT 4SM -RASN BR OVC014 02/01 A2982 RMK SC8 SLP100